Time;durP1;ratioP1;P1;durP2;ratioP2;P2;SDS_P1;SDS_P2;PMS_P1;PMS_P2;Temp;Humidity;BMP_temperature;BMP_pressure;BME280_temperature;BME280_humidity;BME280_pressure;Samples;Min_cycle;Max_cycle;Signal;HPM_P1;HPM_P2
2022/03/24 00:02:15;;;;;;;;;42.25;35.25;;;;;16.21;28.77;102049.72;5013736;28;46226;-86
2022/03/24 00:04:41;;;;;;;;;41.50;34.75;;;;;16.13;29.00;102043.28;5013540;28;45881;-86
2022/03/24 00:07:06;;;;;;;;;41.50;35.75;;;;;16.12;29.02;102042.44;4997113;28;45909;-88
2022/03/24 00:09:32;;;;;;;;;40.75;34.50;;;;;16.11;28.57;102051.31;5067869;27;47038;-88
2022/03/24 00:15:19;;;;;;;;;41.25;36.00;;;;;15.99;28.96;102048.69;5096636;27;45640;-88
2022/03/24 00:17:45;;;;;;;;;36.25;33.25;;;;;15.94;28.88;102043.75;5097094;27;45766;-88
2022/03/24 00:20:14;;;;;;;;;46.00;39.00;;;;;15.87;28.98;102043.31;5096677;27;47635;-89
2022/03/24 00:22:41;;;;;;;;;45.00;33.00;;;;;15.80;28.92;102042.06;5097370;27;46361;-88
2022/03/24 00:25:08;;;;;;;;;42.50;36.00;;;;;15.76;28.96;102035.28;5096909;27;45432;-88
2022/03/24 00:27:33;;;;;;;;;40.00;35.50;;;;;15.79;29.19;102045.66;5096824;27;45544;-88
2022/03/24 00:29:59;;;;;;;;;44.25;37.00;;;;;15.72;29.39;102039.09;5095237;27;48484;-85
2022/03/24 00:32:24;;;;;;;;;43.50;36.00;;;;;15.68;29.37;102034.16;5097000;27;45526;-86
2022/03/24 00:34:53;;;;;;;;;38.50;35.00;;;;;15.70;29.36;102034.91;5096569;27;45621;-86
2022/03/24 00:37:19;;;;;;;;;38.50;34.25;;;;;15.65;29.79;102029.09;5100949;27;45628;-85
2022/03/24 00:39:45;;;;;;;;;45.75;38.00;;;;;15.60;29.74;102029.38;5102640;27;46317;-85
2022/03/24 00:45:32;;;;;;;;;31.75;29.75;;;;;15.56;29.57;102030.56;5099595;27;45840;-86
2022/03/24 00:47:57;;;;;;;;;38.00;33.75;;;;;15.51;29.56;102017.69;5099578;27;45640;-86
2022/03/24 00:50:23;;;;;;;;;40.00;33.50;;;;;15.55;29.93;102031.50;5099250;27;45620;-85
2022/03/24 00:52:48;;;;;;;;;41.25;35.75;;;;;15.50;29.99;102020.38;5099787;27;45685;-85
2022/03/24 00:55:16;;;;;;;;;45.75;35.50;;;;;15.51;29.87;102028.25;5098546;27;45660;-87
2022/03/24 00:57:43;;;;;;;;;41.25;35.75;;;;;15.49;29.55;102030.09;5099996;27;45827;-87
2022/03/24 01:00:12;;;;;;;;;40.25;33.75;;;;;15.41;29.92;102021.88;5081065;27;48172;-87
2022/03/24 01:02:38;;;;;;;;;42.75;34.75;;;;;15.41;29.95;102021.03;5099739;27;46277;-86
2022/03/24 01:05:06;;;;;;;;;45.50;38.00;;;;;15.35;30.21;102017.00;5099715;27;45648;-87
2022/03/24 01:07:33;;;;;;;;;39.50;33.25;;;;;15.35;29.87;102019.66;5100303;27;45654;-86
2022/03/24 01:09:58;;;;;;;;;41.25;34.50;;;;;15.35;30.01;102018.81;5099008;27;45602;-88
2022/03/24 01:15:45;;;;;;;;;38.00;33.25;;;;;15.24;30.03;102013.41;5099766;27;45906;-87
2022/03/24 01:18:14;;;;;;;;;45.75;37.25;;;;;15.23;30.15;102007.28;5100008;27;45728;-86
2022/03/24 01:20:40;;;;;;;;;40.50;35.00;;;;;15.20;30.33;102011.94;5080801;27;47951;-89
2022/03/24 01:23:05;;;;;;;;;36.00;32.50;;;;;15.17;29.91;102010.31;5080584;27;47190;-87
2022/03/24 01:25:31;;;;;;;;;41.00;34.00;;;;;15.07;29.73;101998.69;5099029;27;45803;-88
2022/03/24 01:27:56;;;;;;;;;37.50;33.25;;;;;15.05;30.03;102009.38;5099109;27;45749;-87
2022/03/24 01:30:22;;;;;;;;;39.75;34.00;;;;;15.05;29.88;102014.66;5099790;27;46664;-87
2022/03/24 01:32:47;;;;;;;;;39.25;33.25;;;;;15.02;30.00;102017.50;5080722;27;47578;-86
2022/03/24 01:35:15;;;;;;;;;47.25;36.00;;;;;14.96;30.41;102009.13;5099780;27;45648;-85
2022/03/24 01:37:41;;;;;;;;;42.00;35.50;;;;;14.96;29.88;102009.13;5099445;27;45754;-87
2022/03/24 01:40:09;;;;;;;;;40.25;35.75;;;;;14.86;30.20;102006.28;5097892;27;48720;-87
2022/03/24 01:45:57;;;;;;;;;41.75;35.75;;;;;14.86;30.46;102005.41;5101119;27;45622;-88
2022/03/24 01:48:22;;;;;;;;;39.75;34.00;;;;;14.83;30.34;102005.63;5100903;27;45495;-87
2022/03/24 01:50:48;;;;;;;;;36.00;33.00;;;;;14.80;30.60;102000.56;5102134;27;46649;-86
2022/03/24 01:53:14;;;;;;;;;39.00;31.25;;;;;14.79;30.75;101998.88;5102369;27;47257;-88
2022/03/24 01:55:44;;;;;;;;;43.25;34.25;;;;;14.77;30.48;101990.22;5102300;27;45545;-85
2022/03/24 01:58:12;;;;;;;;;37.50;33.75;;;;;14.76;30.35;101989.38;5102318;27;45646;-88
2022/03/24 02:00:37;;;;;;;;;32.75;30.25;;;;;14.74;30.20;101993.88;5083162;27;47055;-86
2022/03/24 02:03:04;;;;;;;;;37.50;35.00;;;;;14.70;30.31;101997.69;5101822;27;45605;-88
2022/03/24 02:05:34;;;;;;;;;43.75;34.75;;;;;14.67;30.48;101993.47;5102448;27;45966;-88
2022/03/24 02:08:03;;;;;;;;;43.50;36.50;;;;;14.62;30.80;101984.16;5103220;27;45654;-88
2022/03/24 02:10:31;;;;;;;;;42.50;35.50;;;;;14.64;30.50;101990.16;5103671;27;45526;-87
2022/03/24 02:16:18;;;;;;;;;33.00;32.25;;;;;14.56;30.92;101988.06;5101449;27;45470;-89
2022/03/24 02:18:45;;;;;;;;;40.00;34.00;;;;;14.51;30.76;101978.75;5100152;27;45403;-88
2022/03/24 02:21:15;;;;;;;;;42.25;35.75;;;;;14.50;30.87;101984.97;5098189;27;45691;-87
2022/03/24 02:23:44;;;;;;;;;40.25;35.25;;;;;14.44;31.06;101980.94;5098493;27;46158;-85
2022/03/24 02:26:10;;;;;;;;;39.75;33.00;;;;;14.46;31.32;101988.75;5098651;27;45513;-87
2022/03/24 02:28:36;;;;;;;;;36.75;33.75;;;;;14.43;30.82;101986.31;5098465;27;45761;-88
2022/03/24 02:31:04;;;;;;;;;44.00;36.00;;;;;14.34;31.42;101971.91;5081786;27;48358;-85
2022/03/24 02:33:29;;;;;;;;;46.25;33.25;;;;;14.36;31.16;101983.19;5101626;27;45723;-87
2022/03/24 02:35:55;;;;;;;;;38.25;33.50;;;;;14.34;31.16;101979.81;5101563;27;45628;-88
2022/03/24 02:38:20;;;;;;;;;41.00;34.00;;;;;14.27;31.25;101974.09;5100760;27;45624;-86
2022/03/24 02:40:49;;;;;;;;;38.75;36.00;;;;;14.27;31.20;101974.09;5100073;27;45681;-87
2022/03/24 02:46:36;;;;;;;;;39.25;34.50;;;;;14.23;31.37;101982.28;5101968;27;45856;-88
2022/03/24 02:49:03;;;;;;;;;40.25;35.50;;;;;14.21;31.89;101986.81;5102647;27;45662;-88
2022/03/24 02:51:32;;;;;;;;;38.25;31.00;;;;;14.19;31.47;101986.94;5100983;27;45565;-87
2022/03/24 02:53:57;;;;;;;;;39.25;34.25;;;;;14.16;32.05;101992.38;5085117;27;46639;-88
2022/03/24 02:56:23;;;;;;;;;34.00;31.25;;;;;14.12;31.80;101990.03;5082057;27;46019;-88
2022/03/24 02:58:48;;;;;;;;;44.75;36.00;;;;;14.14;31.61;101989.00;5101271;27;45523;-86
2022/03/24 03:01:14;;;;;;;;;38.25;34.25;;;;;14.10;31.88;101984.00;5101024;27;45615;-86
2022/03/24 03:03:39;;;;;;;;;40.25;32.50;;;;;14.08;31.86;101992.03;5101759;27;45762;-87
2022/03/24 03:06:04;;;;;;;;;34.00;30.75;;;;;14.06;32.10;101985.16;5083977;27;45720;-86
2022/03/24 03:08:30;;;;;;;;;45.25;35.00;;;;;14.06;31.80;101993.06;5101715;27;45573;-86
2022/03/24 03:10:55;;;;;;;;;38.50;33.75;;;;;14.03;32.14;101980.09;5098311;27;46549;-84
2022/03/24 03:16:44;;;;;;;;;39.00;34.00;;;;;14.00;32.14;101985.53;5098012;27;45644;-86
2022/03/24 03:19:10;;;;;;;;;42.00;35.25;;;;;13.96;32.40;101986.69;5097992;27;45593;-84
2022/03/24 03:21:36;;;;;;;;;32.00;28.00;;;;;13.95;32.40;101987.63;5097041;27;45527;-85
2022/03/24 03:24:03;;;;;;;;;36.25;31.75;;;;;13.92;32.19;101985.19;5097942;27;45669;-83
2022/03/24 03:26:29;;;;;;;;;34.00;33.00;;;;;13.87;32.51;101981.03;5078476;27;45898;-84
2022/03/24 03:28:55;;;;;;;;;45.25;36.00;;;;;13.90;32.61;101987.06;5097237;27;45813;-84
2022/03/24 03:31:20;;;;;;;;;41.00;34.50;;;;;13.87;32.86;101986.31;5097083;27;46548;-84
2022/03/24 03:33:46;;;;;;;;;34.25;33.50;;;;;13.82;32.57;101977.84;5096241;27;45667;-83
2022/03/24 03:36:12;;;;;;;;;39.50;33.25;;;;;13.80;32.61;101971.00;5094738;27;45755;-84
2022/03/24 03:38:38;;;;;;;;;34.50;31.50;;;;;13.79;32.52;101977.22;5096502;27;45557;-84
2022/03/24 03:41:04;;;;;;;;;45.75;37.50;;;;;13.83;32.75;101991.88;5096025;27;45703;-84
2022/03/24 03:46:51;;;;;;;;;36.00;34.00;;;;;13.77;33.13;101985.19;5096331;27;45617;-84
2022/03/24 03:49:18;;;;;;;;;36.75;32.75;;;;;13.74;32.92;101982.75;5096340;27;45620;-83
2022/03/24 03:51:43;;;;;;;;;41.00;34.25;;;;;13.71;33.35;101976.84;5094310;27;47326;-84
2022/03/24 03:54:09;;;;;;;;;38.75;30.75;;;;;13.71;32.80;101987.38;5095848;27;45996;-85
2022/03/24 03:56:36;;;;;;;;;33.50;30.25;;;;;13.70;32.71;101985.69;5078196;27;45763;-85
2022/03/24 04:02:36;;;;;;;;;43.00;34.00;;;;;13.69;33.44;101984.84;5086701;27;46206;-85
2022/03/24 04:05:02;;;;;;;;;42.00;36.25;;;;;13.69;33.01;101978.72;5077935;27;47725;-85
2022/03/24 04:07:28;;;;;;;;;44.50;32.25;;;;;13.67;33.20;101981.44;5078801;27;45975;-85
2022/03/24 04:09:53;;;;;;;;;39.50;33.00;;;;;13.63;33.24;101969.41;5096963;27;45656;-85
2022/03/24 04:12:19;;;;;;;;;35.25;32.25;;;;;13.66;33.37;101978.91;5096895;27;46504;-84
2022/03/24 04:14:44;;;;;;;;;37.25;33.00;;;;;13.68;33.63;101982.28;5098668;27;45608;-85
2022/03/24 04:17:09;;;;;;;;;42.25;33.50;;;;;13.67;33.58;101983.22;5099202;27;45671;-84
2022/03/24 04:19:35;;;;;;;;;41.75;34.75;;;;;13.62;33.69;101980.88;5100933;27;45609;-85
2022/03/24 04:22:01;;;;;;;;;38.00;33.75;;;;;13.62;33.25;101978.25;5101145;27;45700;-85
2022/03/24 04:24:26;;;;;;;;;38.00;33.00;;;;;13.63;33.47;101979.94;5100788;27;45804;-85
2022/03/24 04:26:52;;;;;;;;;36.50;30.25;;;;;13.62;33.59;101980.03;5100725;27;45696;-85
2022/03/24 04:32:39;;;;;;;;;38.50;35.50;;;;;13.59;33.83;101982.88;5099207;27;46110;-86
2022/03/24 04:35:06;;;;;;;;;39.25;36.00;;;;;13.55;33.74;101981.38;5099435;27;45558;-84
2022/03/24 04:37:32;;;;;;;;;42.75;37.00;;;;;13.53;34.09;101973.56;5099697;27;45820;-85
2022/03/24 04:39:57;;;;;;;;;36.00;32.25;;;;;13.47;33.88;101967.81;5114902;27;45890;-85
2022/03/24 04:42:23;;;;;;;;;38.50;35.50;;;;;13.48;34.10;101974.78;5063680;27;47539;-84
2022/03/24 04:44:48;;;;;;;;;36.50;32.00;;;;;13.49;33.90;101976.47;5099334;27;45600;-85
2022/03/24 04:47:15;;;;;;;;;42.75;34.50;;;;;13.47;34.04;101971.31;5100712;27;45674;-86
2022/03/24 04:49:41;;;;;;;;;38.50;34.25;;;;;13.42;33.79;101966.31;5101406;27;45710;-85
2022/03/24 04:52:07;;;;;;;;;39.75;32.25;;;;;13.47;33.89;101978.34;5081432;27;47665;-85
2022/03/24 04:54:33;;;;;;;;;42.50;31.75;;;;;13.48;34.06;101982.69;5098523;27;48422;-85
2022/03/24 04:56:58;;;;;;;;;42.50;34.75;;;;;13.45;34.27;101974.03;5100052;27;45528;-86
2022/03/24 05:02:49;;;;;;;;;36.00;30.75;;;;;13.39;34.46;101958.59;5096182;27;45740;-85
2022/03/24 05:05:15;;;;;;;;;42.75;37.25;;;;;13.41;34.48;101969.88;5082803;27;47120;-85
2022/03/24 05:07:41;;;;;;;;;37.25;33.75;;;;;13.40;34.37;101968.19;5082074;27;45545;-85
2022/03/24 05:10:08;;;;;;;;;45.00;36.50;;;;;13.33;34.51;101961.59;5102804;27;45838;-85
2022/03/24 05:12:33;;;;;;;;;47.50;35.00;;;;;13.34;34.61;101972.97;5085218;27;47863;-85
2022/03/24 05:14:59;;;;;;;;;46.00;36.50;;;;;13.32;34.80;101975.72;5106640;27;45567;-86
2022/03/24 05:17:24;;;;;;;;;44.00;37.75;;;;;13.34;34.57;101976.47;5106506;27;45265;-86
2022/03/24 05:19:50;;;;;;;;;43.00;36.50;;;;;13.29;34.86;101968.00;5106747;27;45534;-85
2022/03/24 05:22:16;;;;;;;;;35.25;30.50;;;;;13.30;34.55;101971.47;5106605;27;45761;-85
2022/03/24 05:24:43;;;;;;;;;39.50;36.25;;;;;13.27;34.79;101971.69;5104202;27;45553;-86
2022/03/24 05:27:09;;;;;;;;;46.00;33.00;;;;;13.25;34.90;101982.28;5100577;27;45969;-84
2022/03/24 05:32:57;;;;;;;;;42.00;35.75;;;;;13.24;34.78;101988.50;5098776;27;46034;-84
2022/03/24 05:35:22;;;;;;;;;44.50;35.00;;;;;13.18;35.28;101977.47;5098096;27;45541;-84
2022/03/24 05:37:48;;;;;;;;;44.00;34.50;;;;;13.19;35.38;101984.44;5097737;27;45773;-84
2022/03/24 05:40:13;;;;;;;;;47.00;36.75;;;;;13.15;35.27;101981.16;5097520;27;45581;-85
2022/03/24 05:42:39;;;;;;;;;36.00;34.50;;;;;13.15;35.35;101981.16;5096902;27;46446;-84
2022/03/24 05:48:26;;;;;;;;;46.50;35.00;;;;;13.11;35.62;101982.25;5096604;27;45824;-84
2022/03/24 05:50:51;;;;;;;;;34.25;34.25;;;;;13.09;35.49;101981.47;5095892;27;45880;-84
2022/03/24 05:53:17;;;;;;;;;40.00;35.75;;;;;13.06;35.57;101983.47;5096586;27;46640;-85
2022/03/24 05:55:43;;;;;;;;;38.75;32.00;;;;;13.08;35.23;101994.72;5096709;27;46513;-85
2022/03/24 05:58:09;;;;;;;;;50.00;37.50;;;;;13.02;35.50;101982.78;5078118;27;46344;-84
2022/03/24 06:00:37;;;;;;;;;38.25;31.75;;;;;13.01;35.47;101986.34;5096453;27;45966;-85
2022/03/24 06:03:03;;;;;;;;;45.50;35.50;;;;;13.00;35.36;101988.16;5096070;27;46609;-85
2022/03/24 06:05:29;;;;;;;;;36.75;32.50;;;;;13.00;35.35;101989.94;5096252;27;46172;-85
2022/03/24 06:07:55;;;;;;;;;36.50;34.50;;;;;13.02;35.71;101994.16;5096482;27;45839;-85
2022/03/24 06:10:21;;;;;;;;;41.25;35.00;;;;;12.98;35.83;101986.53;5077836;27;45633;-84
2022/03/24 06:12:47;;;;;;;;;41.75;37.00;;;;;12.98;35.89;101990.00;5077575;27;47440;-85
2022/03/24 06:18:36;;;;;;;;;38.50;34.25;;;;;12.99;36.17;101999.59;5096181;27;45707;-87
2022/03/24 06:21:02;;;;;;;;;39.50;34.75;;;;;12.98;36.11;101990.00;5096630;27;45495;-85
2022/03/24 06:23:28;;;;;;;;;44.00;36.75;;;;;13.02;35.93;101995.94;5096589;27;45830;-87
2022/03/24 06:25:54;;;;;;;;;42.00;36.00;;;;;13.00;36.07;101992.56;5077785;27;47947;-86
2022/03/24 06:28:19;;;;;;;;;39.25;34.75;;;;;13.03;35.86;101995.84;5078286;27;45585;-86
2022/03/24 06:30:45;;;;;;;;;38.00;33.50;;;;;13.07;36.12;101999.13;5078022;27;45916;-86
2022/03/24 06:33:11;;;;;;;;;36.50;34.50;;;;;13.05;35.74;101990.50;5112017;27;48613;-85
2022/03/24 06:35:36;;;;;;;;;49.00;38.50;;;;;13.09;35.79;101993.78;5096537;27;46033;-86
2022/03/24 06:38:02;;;;;;;;;48.25;38.25;;;;;13.14;35.99;101999.66;5096692;27;45620;-85
2022/03/24 06:40:28;;;;;;;;;39.25;35.25;;;;;13.14;36.25;102008.41;5096623;27;45665;-85
2022/03/24 06:42:54;;;;;;;;;41.25;34.25;;;;;13.11;36.28;101994.56;5096777;27;45796;-85
2022/03/24 06:48:41;;;;;;;;;42.25;37.00;;;;;13.15;36.27;101996.94;5095719;27;45920;-85
2022/03/24 06:51:07;;;;;;;;;44.25;34.25;;;;;13.16;36.28;101997.78;5096399;27;45783;-84
2022/03/24 06:53:32;;;;;;;;;44.00;37.00;;;;;13.12;36.27;101991.84;5081101;27;46638;-84
2022/03/24 06:56:01;;;;;;;;;37.75;34.25;;;;;13.19;36.18;102003.72;5095967;27;45660;-84
2022/03/24 07:04:49;;;;;;;;;55.50;39.00;;;;;13.25;36.06;102013.03;5089748;27;46283;-84
2022/03/24 07:07:15;;;;;;;;;44.00;37.50;;;;;13.24;36.16;102017.44;5095395;27;46226;-85
2022/03/24 07:09:43;;;;;;;;;42.00;34.75;;;;;13.27;36.25;102008.53;5076383;27;45475;-83
2022/03/24 07:12:09;;;;;;;;;48.50;39.25;;;;;13.28;36.26;102010.22;5077096;27;45948;-84
2022/03/24 07:14:34;;;;;;;;;46.75;37.25;;;;;13.27;36.35;102012.00;5079620;27;48502;-86
2022/03/24 07:17:00;;;;;;;;;48.75;37.25;;;;;13.33;35.96;102016.06;5096018;27;45763;-85
2022/03/24 07:19:25;;;;;;;;;48.00;37.75;;;;;13.35;36.23;102012.38;5095999;27;45601;-85
2022/03/24 07:21:51;;;;;;;;;43.00;36.75;;;;;13.35;36.20;102009.75;5096417;27;45661;-85
2022/03/24 07:24:16;;;;;;;;;42.25;35.25;;;;;13.39;36.26;102013.88;5077344;27;48013;-86
2022/03/24 07:26:43;;;;;;;;;46.25;38.50;;;;;13.38;36.14;102011.38;5060657;27;46622;-86
2022/03/24 07:32:34;;;;;;;;;49.00;37.25;;;;;13.41;36.33;102022.53;5095607;27;45711;-85
2022/03/24 07:34:59;;;;;;;;;48.00;39.25;;;;;13.37;36.29;102013.16;5094505;27;47547;-86
2022/03/24 07:37:25;;;;;;;;;46.75;37.25;;;;;13.42;36.15;102011.06;5095784;27;46315;-86
2022/03/24 07:39:50;;;;;;;;;43.00;36.50;;;;;13.45;36.22;102024.03;5093826;27;45634;-85
2022/03/24 07:42:16;;;;;;;;;50.75;39.00;;;;;13.45;36.17;102025.81;5097503;27;45498;-86
2022/03/24 07:48:16;;;;;;;;;50.50;37.00;;;;;13.50;36.06;102026.41;5093807;27;46233;-81
2022/03/24 07:50:45;;;;;;;;;44.25;37.75;;;;;13.53;35.90;102022.75;5093013;27;45632;-82
2022/03/24 07:53:13;;;;;;;;;49.75;37.00;;;;;13.58;36.16;102026.78;5095017;27;45535;-81
2022/03/24 07:55:45;;;;;;;;;40.00;37.25;;;;;13.63;35.84;102031.78;5094971;27;45496;-82
2022/03/24 07:58:15;;;;;;;;;46.50;36.25;;;;;13.64;36.29;102033.47;5093329;27;46973;-83
2022/03/24 08:04:05;;;;;;;;;46.25;37.25;;;;;13.71;35.98;102035.63;5094195;27;45623;-82
2022/03/24 08:06:32;;;;;;;;;48.00;39.00;;;;;13.75;35.72;102038.94;5094256;27;45862;-83
2022/03/24 08:08:58;;;;;;;;;51.25;37.25;;;;;13.78;35.67;102036.94;5094205;27;46070;-82
2022/03/24 08:11:25;;;;;;;;;43.50;37.75;;;;;13.80;36.01;102040.34;5092987;27;46175;-82
2022/03/24 08:13:53;;;;;;;;;43.75;38.00;;;;;13.83;35.59;102034.03;5095493;27;45704;-83
2022/03/24 08:19:41;;;;;;;;;48.00;39.75;;;;;13.92;35.51;102035.25;5095644;27;45858;-82
2022/03/24 08:22:07;;;;;;;;;52.75;39.50;;;;;13.95;35.71;102040.31;5095668;27;45883;-82
2022/03/24 08:24:32;;;;;;;;;48.75;38.75;;;;;13.99;35.79;102042.66;5097209;27;45537;-81
2022/03/24 08:26:58;;;;;;;;;52.50;39.00;;;;;14.02;35.57;102047.75;5096131;27;46805;-81
2022/03/24 08:29:23;;;;;;;;;50.25;38.50;;;;;14.06;35.27;102040.50;5093930;27;46328;-80
2022/03/24 08:31:49;;;;;;;;;40.25;36.00;;;;;14.12;35.45;102042.75;5094518;27;45692;-85
2022/03/24 08:34:15;;;;;;;;;46.75;37.25;;;;;14.15;35.37;102034.66;5094509;27;45461;-84
2022/03/24 08:36:41;;;;;;;;;45.00;37.75;;;;;14.21;35.44;102037.75;5093993;27;45490;-82
2022/03/24 08:39:06;;;;;;;;;40.75;36.00;;;;;14.29;35.25;102045.19;5095815;27;46015;-84
2022/03/24 08:41:31;;;;;;;;;50.50;39.25;;;;;14.33;35.48;102036.13;5094013;27;45697;-83
2022/03/24 08:43:57;;;;;;;;;49.50;37.75;;;;;14.35;35.23;102034.25;5094482;27;45648;-84
2022/03/24 08:49:44;;;;;;;;;48.50;38.75;;;;;14.53;35.08;102053.31;5093529;27;45666;-84
2022/03/24 08:52:10;;;;;;;;;51.00;39.50;;;;;14.58;35.04;102053.88;5094186;27;45738;-84
2022/03/24 08:54:35;;;;;;;;;43.25;36.00;;;;;14.62;34.59;102048.31;5093907;27;45404;-85
2022/03/24 08:57:02;;;;;;;;;30.25;22.75;;;;;14.64;34.33;102038.50;5092542;27;48847;-86
2022/03/24 08:59:27;;;;;;;;;52.00;36.00;;;;;14.70;34.23;102048.66;5077749;27;46809;-85
2022/03/24 09:05:16;;;;;;;;;43.25;35.50;;;;;14.82;34.08;102049.66;5087355;27;45701;-86
2022/03/24 09:07:42;;;;;;;;;42.50;34.50;;;;;14.89;33.94;102053.59;5079375;27;48422;-85
2022/03/24 09:10:10;;;;;;;;;50.00;33.00;;;;;14.90;33.65;102052.63;5097186;27;45551;-84
2022/03/24 09:12:40;;;;;;;;;44.00;35.50;;;;;14.97;33.87;102053.06;5097233;27;45624;-85
2022/03/24 09:15:07;;;;;;;;;47.75;35.00;;;;;15.04;33.53;102054.34;5097110;27;45518;-85
2022/03/24 09:17:34;;;;;;;;;45.00;34.25;;;;;15.09;33.74;102061.03;5096996;27;46620;-84
2022/03/24 09:20:00;;;;;;;;;43.50;35.25;;;;;15.15;33.20;102059.78;5096709;27;46192;-83
2022/03/24 09:22:26;;;;;;;;;49.00;35.75;;;;;15.21;33.11;102055.88;5096899;27;45865;-83
2022/03/24 09:24:51;;;;;;;;;41.50;35.00;;;;;15.24;33.09;102050.38;5097062;27;45774;-83
2022/03/24 09:27:18;;;;;;;;;38.75;33.00;;;;;15.29;32.82;102061.47;5078717;27;46259;-84
2022/03/24 09:29:43;;;;;;;;;32.50;29.25;;;;;15.35;32.80;102053.97;5097904;27;45527;-83
2022/03/24 09:35:31;;;;;;;;;36.50;32.50;;;;;15.49;32.51;102058.34;5097223;27;45895;-84
2022/03/24 09:37:56;;;;;;;;;44.00;34.25;;;;;15.52;32.32;102052.88;5097417;27;46211;-83
2022/03/24 09:40:22;;;;;;;;;37.50;32.00;;;;;15.61;32.61;102057.50;5097827;27;46261;-83
2022/03/24 09:42:47;;;;;;;;;37.50;34.50;;;;;15.65;32.28;102055.50;5098081;27;45522;-83
2022/03/24 09:45:13;;;;;;;;;39.25;33.00;;;;;15.69;32.25;102046.41;5097893;27;45525;-84
2022/03/24 09:47:40;;;;;;;;;43.75;33.75;;;;;15.79;32.26;102052.75;5097623;27;46378;-86
2022/03/24 09:50:08;;;;;;;;;45.00;34.25;;;;;15.84;32.19;102056.75;5097087;27;46454;-87
2022/03/24 09:52:34;;;;;;;;;44.75;36.25;;;;;15.88;32.12;102050.31;5095304;27;45852;-84
2022/03/24 09:54:59;;;;;;;;;40.50;32.75;;;;;15.96;32.24;102052.41;5097058;27;45616;-84
2022/03/24 09:57:25;;;;;;;;;40.25;33.75;;;;;16.01;32.33;102045.00;5096591;27;45907;-85
2022/03/24 09:59:51;;;;;;;;;38.75;34.00;;;;;16.07;32.06;102055.16;5096455;27;45759;-82
2022/03/24 10:06:00;;;;;;;;;26.50;17.75;;;;;16.23;32.08;102045.16;5070283;27;45735;-82
2022/03/24 10:08:27;;;;;;;;;44.50;34.50;;;;;16.30;31.89;102042.94;5055394;28;46941;-82
2022/03/24 10:11:00;;;;;;;;;43.75;36.00;;;;;16.35;31.93;102040.81;5054568;28;46616;-83
2022/03/24 10:13:53;;;;;;;;;43.50;37.25;;;;;16.45;31.66;102041.81;5055439;28;45724;-83
2022/03/24 10:16:34;;;;;;;;;47.75;37.75;;;;;16.53;31.88;102041.25;5055451;28;45646;-83
2022/03/24 10:19:10;;;;;;;;;48.75;36.75;;;;;16.59;31.87;102036.38;5055106;28;45781;-82
2022/03/24 10:21:38;;;;;;;;;47.75;36.75;;;;;16.67;31.70;102027.88;5055190;28;46129;-84
2022/03/24 10:24:17;;;;;;;;;44.75;36.00;;;;;16.74;31.61;102031.75;5055180;28;45898;-85
2022/03/24 10:27:00;;;;;;;;;48.50;37.75;;;;;16.83;31.83;102038.19;5055394;28;45952;-85
2022/03/24 10:29:27;;;;;;;;;46.25;37.50;;;;;16.88;31.62;102036.03;5055319;28;46320;-85
2022/03/24 10:32:00;;;;;;;;;52.00;40.25;;;;;16.94;31.49;102041.72;5055776;28;46218;-84
2022/03/24 10:34:32;;;;;;;;;48.75;39.00;;;;;17.01;31.28;102042.94;5055520;28;45897;-85
2022/03/24 10:37:02;;;;;;;;;47.25;37.00;;;;;17.05;31.45;102038.28;5055823;28;45618;-84
2022/03/24 10:39:28;;;;;;;;;49.50;38.00;;;;;17.11;30.79;102033.31;5053502;28;47613;-85
2022/03/24 10:42:08;;;;;;;;;44.25;35.75;;;;;17.17;31.18;102024.06;5055424;28;45601;-82
2022/03/24 10:44:34;;;;;;;;;49.00;37.00;;;;;17.22;31.04;102035.16;5055407;28;45730;-84
2022/03/24 10:46:59;;;;;;;;;44.25;34.25;;;;;17.24;30.97;102025.31;5054741;28;45616;-83
2022/03/24 10:49:28;;;;;;;;;47.50;38.00;;;;;17.28;30.96;102031.19;5054500;28;46510;-83
2022/03/24 10:51:54;;;;;;;;;49.50;38.50;;;;;17.30;30.64;102027.47;5054953;28;46282;-81
2022/03/24 10:54:38;;;;;;;;;43.25;35.25;;;;;17.36;30.39;102027.03;5054673;28;45530;-81
2022/03/24 10:57:08;;;;;;;;;47.25;36.25;;;;;17.37;30.31;102026.06;5054887;28;45729;-83
2022/03/24 10:59:38;;;;;;;;;51.25;37.00;;;;;17.41;30.49;102031.97;5054378;28;46566;-84
2022/03/24 11:02:04;;;;;;;;;46.75;36.75;;;;;17.45;30.70;102021.00;5054639;28;46237;-85
2022/03/24 11:04:30;;;;;;;;;48.50;35.00;;;;;17.50;30.29;102023.28;5072422;27;46024;-85
2022/03/24 11:06:55;;;;;;;;;40.00;33.50;;;;;17.59;30.53;102015.53;5094121;27;45798;-83
2022/03/24 11:09:24;;;;;;;;;40.00;33.50;;;;;17.61;30.28;102021.53;5095315;27;46470;-86
2022/03/24 11:12:28;;;;;;;;;43.25;34.75;;;;;17.74;29.89;102020.56;5095116;27;46195;-86
2022/03/24 11:14:59;;;;;;;;;43.00;36.50;;;;;17.79;29.81;102023.72;5094319;27;45866;-85
2022/03/24 11:17:30;;;;;;;;;28.75;27.00;;;;;17.84;29.72;102018.88;5096035;27;45611;-86
2022/03/24 11:20:04;;;;;;;;;42.25;33.50;;;;;17.91;29.94;102020.09;5095512;27;46653;-83
2022/03/24 11:22:54;;;;;;;;;37.25;32.00;;;;;17.96;29.42;102008.16;5096478;27;46099;-84
2022/03/24 11:25:21;;;;;;;;;37.50;32.00;;;;;18.03;29.81;102008.47;5096939;27;45930;-82
2022/03/24 11:27:48;;;;;;;;;36.75;31.00;;;;;18.09;29.19;102008.00;5100393;27;45413;-81
2022/03/24 11:30:16;;;;;;;;;37.00;31.00;;;;;18.16;29.45;102008.34;5104804;27;45577;-85
2022/03/24 11:32:44;;;;;;;;;44.50;35.50;;;;;18.22;29.21;102003.41;5107730;27;46093;-83
2022/03/24 11:35:11;;;;;;;;;41.00;32.50;;;;;18.30;29.15;102000.13;5100885;27;45453;-83
2022/03/24 11:37:37;;;;;;;;;41.00;34.25;;;;;18.37;29.22;101996.84;5096466;27;45647;-86
2022/03/24 11:40:13;;;;;;;;;42.50;33.00;;;;;18.46;29.16;101990.78;5095320;27;48643;-86
2022/03/24 11:43:02;;;;;;;;;39.75;31.75;;;;;18.53;29.13;101988.47;5097054;27;46599;-85
2022/03/24 11:45:49;;;;;;;;;39.50;31.50;;;;;18.60;28.96;101986.19;5097020;27;45522;-84
2022/03/24 11:48:17;;;;;;;;;37.25;33.00;;;;;18.65;29.05;101982.19;5081988;27;45857;-84
2022/03/24 11:50:52;;;;;;;;;41.25;32.50;;;;;18.71;29.17;101983.47;5098008;27;46289;-83
2022/03/24 11:53:23;;;;;;;;;41.25;32.00;;;;;18.76;28.25;101987.44;5095454;27;47904;-84
2022/03/24 11:56:03;;;;;;;;;35.50;30.00;;;;;18.81;28.40;101979.94;5097225;27;45599;-84
2022/03/24 11:58:41;;;;;;;;;34.75;30.25;;;;;18.87;28.11;101983.88;5097765;27;45824;-86
2022/03/24 12:04:43;;;;;;;;;33.75;30.00;;;;;18.97;28.21;101974.16;5097360;27;45676;-85
2022/03/24 12:07:14;;;;;;;;;39.00;32.50;;;;;19.03;27.97;101968.34;5097047;27;45600;-84
2022/03/24 12:09:58;;;;;;;;;34.25;30.25;;;;;19.08;28.14;101963.47;5096943;27;45655;-86
2022/03/24 12:12:24;;;;;;;;;31.25;28.50;;;;;19.11;28.18;101957.88;5097457;27;45665;-86
2022/03/24 12:14:53;;;;;;;;;33.25;30.75;;;;;19.17;28.07;101959.16;5095502;27;46124;-85
2022/03/24 12:20:43;;;;;;;;;34.50;30.75;;;;;19.22;27.84;101949.84;5095407;27;45695;-87
2022/03/24 12:23:09;;;;;;;;;36.50;30.50;;;;;19.24;27.98;101939.06;5096906;27;45860;-84
2022/03/24 12:25:35;;;;;;;;;36.25;32.25;;;;;19.32;27.75;101943.75;5096326;27;47415;-84
2022/03/24 12:28:04;;;;;;;;;36.25;29.75;;;;;19.41;27.44;101949.09;5079946;27;45906;-86
2022/03/24 12:30:56;;;;;;;;;35.00;30.00;;;;;19.49;27.29;101943.97;5097997;27;45752;-87
2022/03/24 12:36:43;;;;;;;;;43.75;32.00;;;;;19.61;27.73;101932.28;5099094;27;45648;-85
2022/03/24 12:39:13;;;;;;;;;33.00;30.00;;;;;19.66;27.05;101932.69;5098432;27;45930;-86
2022/03/24 12:41:38;;;;;;;;;36.75;30.00;;;;;19.73;27.29;101930.34;5098821;27;45631;-85
2022/03/24 12:44:06;;;;;;;;;35.75;32.00;;;;;19.77;27.17;101929.09;5098576;27;46386;-85
2022/03/24 12:46:44;;;;;;;;;38.25;30.25;;;;;19.83;27.28;101927.72;5098775;27;46470;-86